FAEL

Ben Schoeman Airport

East London, South Africa
METAR FAEL 181333Z 21024G34KT CAVOK 25/17 Q1007
Observed Flight Rules
Jan-18 @ 13:33 UTC (18 minutes ago) Visual Flight Rules
Wind Visibility Clouds
210° at 24 knots
 Gusting to 34 knots
10,000+ meters
  • Clear skies
Temperatures Readings
Current 25°C / 77°F
Dewpoint 17°C / 63°F
Humidity 61%
Altimeter 29.73" Hg
Pressure 1006.92 hPa
Elevation 125
METAR FAEL 181333Z 21024G34KT CAVOK 25/17 Q1007
Observed Flight Rules
Jan-18 @ 13:33 UTC
(18 minutes ago)
VFR
Wind Visibility
210° at 24 knots
 Gusting to 34 knots
10,000+ meters
Clouds
  • Clear skies
Temperature Dewpoint
25°C / 77°F 17°C / 63°F
Humidity Altimeter Pressure
61% 29.73" Hg 1006.92 hPa